Time;durP1;ratioP1;P1;durP2;ratioP2;P2;SDS_P1;SDS_P2;PMS_P1;PMS_P2;Temp;Humidity;BMP_temperature;BMP_pressure;BME280_temperature;BME280_humidity;BME280_pressure;Samples;Min_cycle;Max_cycle;Signal;HPM_P1;HPM_P2
2021/09/19 00:01:39;;;;;;;3.37;2.80;;;14.90;99.90;;;;;;5153284;27;20662;-73
2021/09/19 00:04:06;;;;;;;3.17;2.90;;;14.90;99.90;;;;;;5152950;27;20208;-74
2021/09/19 00:06:34;;;;;;;3.53;3.23;;;14.90;99.90;;;;;;5152870;27;20243;-73
2021/09/19 00:09:01;;;;;;;3.30;2.90;;;14.90;99.90;;;;;;5152595;27;20236;-74
2021/09/19 00:11:27;;;;;;;3.47;2.90;;;14.90;99.90;;;;;;5153322;27;20204;-74
2021/09/19 00:13:54;;;;;;;3.40;2.60;;;14.90;99.90;;;;;;5153171;27;20608;-74
2021/09/19 00:16:21;;;;;;;3.07;2.87;;;14.80;99.90;;;;;;5153153;27;20211;-74
2021/09/19 00:18:47;;;;;;;2.93;2.60;;;14.80;99.90;;;;;;5152927;27;20224;-74
2021/09/19 00:21:14;;;;;;;3.40;2.60;;;14.80;99.90;;;;;;5152804;27;20201;-74
2021/09/19 00:23:42;;;;;;;2.97;2.73;;;14.80;99.90;;;;;;5152834;27;20736;-74
2021/09/19 00:26:09;;;;;;;3.13;2.67;;;14.80;99.90;;;;;;5153129;27;20232;-74
2021/09/19 00:28:35;;;;;;;2.97;2.63;;;14.80;99.90;;;;;;5152616;27;20693;-74
2021/09/19 00:31:02;;;;;;;3.37;3.10;;;14.80;99.90;;;;;;5152790;27;20200;-74
2021/09/19 00:33:29;;;;;;;3.63;2.80;;;14.80;99.90;;;;;;5152857;27;20201;-74
2021/09/19 00:35:55;;;;;;;4.03;2.80;;;14.70;99.90;;;;;;5152857;27;20204;-74
2021/09/19 00:38:22;;;;;;;3.13;2.80;;;14.70;99.90;;;;;;5152648;27;20228;-74
2021/09/19 00:40:50;;;;;;;3.63;3.30;;;14.60;99.90;;;;;;5152453;27;20769;-74
2021/09/19 00:43:16;;;;;;;2.83;2.60;;;14.60;99.90;;;;;;5152634;27;20252;-73
2021/09/19 00:45:43;;;;;;;3.60;3.23;;;14.50;99.90;;;;;;5152534;27;20233;-72
2021/09/19 00:48:10;;;;;;;3.93;2.97;;;14.50;99.90;;;;;;5152464;27;20209;-73
2021/09/19 00:50:36;;;;;;;3.23;3.03;;;14.40;99.90;;;;;;5151960;27;20201;-73
2021/09/19 00:53:03;;;;;;;3.27;2.87;;;14.50;99.90;;;;;;5152605;27;20208;-73
2021/09/19 00:55:30;;;;;;;2.83;2.63;;;14.60;99.90;;;;;;5152761;27;20600;-72
2021/09/19 00:57:59;;;;;;;3.23;2.93;;;14.60;99.90;;;;;;5152288;27;20273;-72
2021/09/19 01:00:28;;;;;;;3.93;3.00;;;14.60;99.90;;;;;;5151639;27;20269;-72
2021/09/19 01:02:55;;;;;;;5.20;3.27;;;14.70;99.90;;;;;;5152482;27;20380;-71
2021/09/19 01:05:23;;;;;;;3.17;2.87;;;14.70;99.90;;;;;;5152485;27;20232;-71
2021/09/19 01:07:51;;;;;;;3.23;2.97;;;14.60;99.90;;;;;;5152266;27;20204;-71
2021/09/19 01:10:21;;;;;;;3.73;2.97;;;14.60;99.90;;;;;;5152290;27;20236;-72
2021/09/19 01:12:52;;;;;;;3.67;3.07;;;14.70;99.90;;;;;;5152528;27;20285;-72
2021/09/19 01:15:20;;;;;;;3.37;3.07;;;14.60;99.90;;;;;;5136047;27;20676;-71
2021/09/19 01:17:47;;;;;;;3.63;3.33;;;14.70;99.90;;;;;;5131370;27;20275;-71
2021/09/19 01:20:14;;;;;;;3.47;3.17;;;14.70;99.90;;;;;;5131033;27;20702;-72
2021/09/19 01:22:44;;;;;;;3.07;2.87;;;14.70;99.90;;;;;;5130957;27;20201;-72
2021/09/19 01:25:14;;;;;;;3.53;3.23;;;14.60;99.90;;;;;;5131089;27;20262;-72
2021/09/19 01:27:43;;;;;;;3.27;2.70;;;14.70;99.90;;;;;;5131255;27;20383;-72
2021/09/19 01:30:11;;;;;;;3.67;3.37;;;14.70;99.90;;;;;;5131320;27;20231;-73
2021/09/19 01:32:41;;;;;;;5.77;3.07;;;14.70;99.90;;;;;;5131288;27;20306;-73
2021/09/19 01:35:10;;;;;;;3.80;3.03;;;14.60;99.90;;;;;;5130982;27;20246;-73
2021/09/19 01:37:36;;;;;;;3.57;3.23;;;14.70;99.90;;;;;;5130756;27;20282;-73
2021/09/19 01:40:04;;;;;;;3.23;2.83;;;14.60;99.90;;;;;;5130745;27;20735;-73
2021/09/19 01:42:32;;;;;;;3.37;3.07;;;14.60;99.90;;;;;;5130937;27;20248;-72
2021/09/19 01:44:59;;;;;;;4.23;3.07;;;14.60;99.90;;;;;;5130949;27;20322;-72
2021/09/19 01:47:26;;;;;;;4.40;3.03;;;14.60;99.90;;;;;;5130554;27;20213;-72
2021/09/19 01:49:52;;;;;;;4.77;3.57;;;14.60;99.90;;;;;;5130755;27;20244;-72
2021/09/19 01:52:21;;;;;;;4.63;3.17;;;14.60;99.90;;;;;;5130438;27;20655;-72
2021/09/19 01:54:47;;;;;;;3.50;3.10;;;14.60;99.90;;;;;;5130368;27;20703;-72
2021/09/19 01:57:17;;;;;;;3.33;3.03;;;14.60;99.90;;;;;;5130334;27;20682;-72
2021/09/19 01:59:46;;;;;;;3.10;2.90;;;14.50;99.90;;;;;;5130617;27;20280;-72
2021/09/19 02:02:12;;;;;;;4.07;3.00;;;14.50;99.90;;;;;;5130153;27;20297;-73
2021/09/19 02:04:40;;;;;;;3.10;2.83;;;14.50;99.90;;;;;;5130577;27;20256;-73
2021/09/19 02:07:07;;;;;;;4.00;2.93;;;14.50;99.90;;;;;;5130156;27;20198;-72
2021/09/19 02:09:33;;;;;;;4.63;3.23;;;14.50;99.90;;;;;;5130384;27;20237;-72
2021/09/19 02:12:00;;;;;;;3.40;3.07;;;14.50;99.90;;;;;;5130311;27;20250;-72
2021/09/19 02:14:26;;;;;;;3.27;2.97;;;14.50;99.90;;;;;;5130189;27;20265;-73
2021/09/19 02:16:54;;;;;;;3.40;3.10;;;14.50;99.90;;;;;;5130447;27;20197;-72
2021/09/19 02:19:21;;;;;;;5.23;2.83;;;14.50;99.90;;;;;;5130145;27;20225;-72
2021/09/19 02:21:48;;;;;;;2.90;2.70;;;14.50;99.90;;;;;;5130332;27;20237;-72
2021/09/19 02:24:14;;;;;;;3.53;3.23;;;14.50;99.90;;;;;;5130026;27;20205;-72
2021/09/19 02:26:41;;;;;;;5.43;3.20;;;14.60;99.90;;;;;;5129284;27;20202;-72
2021/09/19 02:29:08;;;;;;;3.37;3.10;;;14.50;99.90;;;;;;5129803;27;20214;-72
2021/09/19 02:31:34;;;;;;;3.27;3.07;;;14.60;99.90;;;;;;5129941;27;20209;-72
2021/09/19 02:34:02;;;;;;;3.07;2.87;;;14.50;99.90;;;;;;5130035;27;20229;-72
2021/09/19 02:36:29;;;;;;;3.40;3.10;;;14.50;99.90;;;;;;5129654;27;20229;-72
2021/09/19 02:38:55;;;;;;;4.53;2.80;;;14.50;99.90;;;;;;5130030;27;20278;-72
2021/09/19 02:41:25;;;;;;;3.33;3.03;;;14.50;99.90;;;;;;5129563;27;20228;-72
2021/09/19 02:43:52;;;;;;;3.23;2.90;;;14.50;99.90;;;;;;5129642;27;20226;-73
2021/09/19 02:46:18;;;;;;;3.30;3.00;;;14.50;99.90;;;;;;5129530;27;20205;-73
2021/09/19 02:48:45;;;;;;;4.63;2.83;;;14.50;99.90;;;;;;5129326;27;20651;-73
2021/09/19 02:51:13;;;;;;;2.83;2.63;;;14.50;99.90;;;;;;5119810;27;20244;-72
2021/09/19 02:53:39;;;;;;;3.17;2.87;;;14.50;99.90;;;;;;5108926;28;20201;-73
2021/09/19 02:56:06;;;;;;;6.03;2.90;;;14.50;99.90;;;;;;5109062;28;20233;-73
2021/09/19 02:58:34;;;;;;;4.03;3.20;;;14.50;99.90;;;;;;5108464;28;20330;-73
2021/09/19 03:01:01;;;;;;;3.93;2.73;;;14.40;99.90;;;;;;5109071;28;20202;-73
2021/09/19 03:03:28;;;;;;;3.83;2.80;;;14.40;99.90;;;;;;5108750;28;20237;-72
2021/09/19 03:05:54;;;;;;;4.00;2.87;;;14.40;99.90;;;;;;5108857;28;20248;-72
2021/09/19 03:08:22;;;;;;;3.30;3.00;;;14.40;99.90;;;;;;5109000;28;20246;-72
2021/09/19 03:10:50;;;;;;;3.20;2.90;;;14.40;99.90;;;;;;5108826;28;20236;-72
2021/09/19 03:13:17;;;;;;;3.00;2.80;;;14.40;99.90;;;;;;5108772;28;20202;-72
2021/09/19 03:15:44;;;;;;;3.20;2.90;;;14.40;99.90;;;;;;5108801;28;20241;-72
2021/09/19 03:18:10;;;;;;;3.20;3.00;;;14.30;99.90;;;;;;5108155;28;20234;-72
2021/09/19 03:20:37;;;;;;;3.50;3.07;;;14.20;99.90;;;;;;5108659;28;20438;-72
2021/09/19 03:23:04;;;;;;;3.20;2.90;;;14.20;99.90;;;;;;5108053;28;20617;-73
2021/09/19 03:25:32;;;;;;;6.40;2.80;;;14.10;99.90;;;;;;5108635;28;20217;-73
2021/09/19 03:27:58;;;;;;;3.10;2.87;;;14.10;99.90;;;;;;5108888;28;20279;-73
2021/09/19 03:30:25;;;;;;;8.83;3.10;;;14.10;99.90;;;;;;5108660;28;20210;-73
2021/09/19 03:32:52;;;;;;;3.73;3.03;;;14.10;99.90;;;;;;5108831;28;20247;-73
2021/09/19 03:35:18;;;;;;;3.97;3.33;;;14.20;99.90;;;;;;5108698;28;20202;-74
2021/09/19 03:37:45;;;;;;;2.97;2.77;;;14.20;99.90;;;;;;5108141;28;20370;-72
2021/09/19 03:40:13;;;;;;;4.50;3.17;;;14.20;99.90;;;;;;5108133;28;20229;-72
2021/09/19 03:42:41;;;;;;;3.30;3.00;;;14.20;99.90;;;;;;5108407;28;20223;-72
2021/09/19 03:45:10;;;;;;;2.87;2.67;;;14.10;99.90;;;;;;5108496;28;20205;-72
2021/09/19 03:47:36;;;;;;;3.43;3.13;;;14.20;99.90;;;;;;5108120;28;20548;-72
2021/09/19 03:50:05;;;;;;;3.50;2.93;;;14.20;99.90;;;;;;5108319;28;20270;-72
2021/09/19 03:52:31;;;;;;;3.63;3.33;;;14.20;99.90;;;;;;5108265;28;20668;-72
2021/09/19 03:54:58;;;;;;;3.53;3.10;;;14.20;99.90;;;;;;5108003;28;20664;-72
2021/09/19 03:57:24;;;;;;;3.20;3.00;;;14.20;99.90;;;;;;5108225;28;20279;-72
2021/09/19 03:59:52;;;;;;;3.97;3.50;;;14.20;99.90;;;;;;5108483;28;20276;-72
2021/09/19 04:02:19;;;;;;;4.40;2.90;;;14.20;99.90;;;;;;5108282;28;20202;-72
2021/09/19 04:04:46;;;;;;;3.37;3.17;;;14.20;99.90;;;;;;5108391;28;20237;-72
2021/09/19 04:07:12;;;;;;;5.23;2.83;;;14.20;99.90;;;;;;5108139;28;20266;-72
2021/09/19 04:09:39;;;;;;;3.60;3.40;;;14.10;99.90;;;;;;5108156;28;20234;-72
2021/09/19 04:12:06;;;;;;;3.43;3.17;;;14.00;99.90;;;;;;5108227;28;20233;-72
2021/09/19 04:14:32;;;;;;;3.57;3.27;;;14.10;99.90;;;;;;5108183;28;20283;-72
2021/09/19 04:17:00;;;;;;;4.60;2.93;;;14.10;99.90;;;;;;5107920;28;20680;-72
2021/09/19 04:19:27;;;;;;;5.63;3.30;;;14.10;99.90;;;;;;5107882;28;20299;-72
2021/09/19 04:21:54;;;;;;;4.13;3.03;;;14.10;99.90;;;;;;5108359;28;20625;-72
2021/09/19 04:24:22;;;;;;;3.43;3.10;;;14.10;99.90;;;;;;5108153;28;20266;-72
2021/09/19 04:26:49;;;;;;;3.83;3.53;;;14.10;99.90;;;;;;5108220;28;20245;-72
2021/09/19 04:29:15;;;;;;;3.20;2.87;;;14.10;99.90;;;;;;5108445;28;20267;-72
2021/09/19 04:31:42;;;;;;;6.13;3.30;;;14.10;99.90;;;;;;5107888;28;20230;-72
2021/09/19 04:34:10;;;;;;;4.13;3.73;;;14.10;99.90;;;;;;5108132;28;20782;-72
2021/09/19 04:36:36;;;;;;;3.13;2.93;;;14.10;99.90;;;;;;5111251;28;20202;-72
2021/09/19 04:39:04;;;;;;;3.60;3.30;;;14.10;99.90;;;;;;5111214;28;20690;-72
2021/09/19 04:41:31;;;;;;;3.40;3.10;;;14.10;99.90;;;;;;5111348;28;20663;-73
2021/09/19 04:43:57;;;;;;;3.60;3.30;;;14.10;99.90;;;;;;5111695;28;20287;-73
2021/09/19 04:46:24;;;;;;;3.70;3.40;;;14.10;99.90;;;;;;5111515;28;20279;-73
2021/09/19 04:48:54;;;;;;;3.50;3.30;;;14.00;99.90;;;;;;5111710;28;20266;-73
2021/09/19 04:51:22;;;;;;;5.33;3.60;;;14.00;99.90;;;;;;5111145;28;20664;-73
2021/09/19 04:53:48;;;;;;;4.13;3.73;;;14.00;99.90;;;;;;5111385;28;20664;-73
2021/09/19 04:56:15;;;;;;;3.83;3.33;;;14.10;99.90;;;;;;5111057;28;20245;-73
2021/09/19 04:58:42;;;;;;;4.77;3.50;;;14.10;99.90;;;;;;5110906;28;20624;-73
2021/09/19 05:01:09;;;;;;;4.50;3.50;;;14.10;99.90;;;;;;5111443;28;20229;-73
2021/09/19 05:03:35;;;;;;;4.90;3.17;;;14.10;99.90;;;;;;5111019;28;20560;-73
2021/09/19 05:06:02;;;;;;;3.80;3.43;;;14.10;99.90;;;;;;5110484;27;20202;-73
2021/09/19 05:08:30;;;;;;;3.80;3.40;;;14.10;99.90;;;;;;5111039;27;20233;-74
2021/09/19 05:10:57;;;;;;;3.80;3.50;;;14.10;99.90;;;;;;5111238;28;20241;-74
2021/09/19 05:13:24;;;;;;;3.60;3.30;;;14.10;99.90;;;;;;5110903;28;20198;-74
2021/09/19 05:15:50;;;;;;;3.57;3.30;;;14.10;99.90;;;;;;5110622;28;20763;-74
2021/09/19 05:18:17;;;;;;;4.03;3.50;;;14.10;99.90;;;;;;5110551;28;20319;-73
2021/09/19 05:20:44;;;;;;;4.17;3.60;;;14.10;99.90;;;;;;5110825;28;20210;-73
2021/09/19 05:23:10;;;;;;;4.53;3.60;;;14.10;99.90;;;;;;5110643;28;20198;-73
2021/09/19 05:25:39;;;;;;;3.70;3.37;;;14.00;99.90;;;;;;5110633;27;20664;-73
2021/09/19 05:28:05;;;;;;;5.47;3.43;;;14.00;99.90;;;;;;5110037;28;20202;-73
2021/09/19 05:30:32;;;;;;;4.30;3.50;;;14.00;99.90;;;;;;5110627;28;20633;-73
2021/09/19 05:32:59;;;;;;;4.33;3.37;;;14.10;99.90;;;;;;5110634;28;20282;-73
2021/09/19 05:35:26;;;;;;;3.70;3.27;;;14.10;99.90;;;;;;5110425;28;20237;-73
2021/09/19 05:37:52;;;;;;;3.60;3.30;;;14.10;99.90;;;;;;5110652;28;20282;-73
2021/09/19 05:40:19;;;;;;;4.07;3.63;;;14.10;99.90;;;;;;5110067;28;20265;-73
2021/09/19 05:42:47;;;;;;;3.50;3.20;;;14.10;99.90;;;;;;5110502;28;20222;-73
2021/09/19 05:45:14;;;;;;;5.33;3.33;;;14.10;99.90;;;;;;5110406;28;20203;-73
2021/09/19 05:47:40;;;;;;;4.77;3.53;;;14.10;99.90;;;;;;5109989;28;20202;-73
2021/09/19 05:50:08;;;;;;;4.00;3.37;;;14.10;99.90;;;;;;5110162;27;20247;-73
2021/09/19 05:52:35;;;;;;;5.17;3.67;;;14.10;99.90;;;;;;5109849;28;20209;-72
2021/09/19 05:55:01;;;;;;;3.80;3.47;;;14.20;99.90;;;;;;5109849;28;20596;-72
2021/09/19 05:57:28;;;;;;;4.40;3.80;;;14.10;99.90;;;;;;5109770;27;20258;-73
2021/09/19 05:59:56;;;;;;;4.63;3.47;;;14.10;99.90;;;;;;5110084;28;20257;-72
2021/09/19 06:02:22;;;;;;;5.67;3.50;;;14.20;99.90;;;;;;5109855;28;20210;-74
2021/09/19 06:04:49;;;;;;;4.27;3.87;;;14.20;99.90;;;;;;5110009;28;20198;-74
2021/09/19 06:07:16;;;;;;;3.67;3.37;;;14.20;99.90;;;;;;5109898;28;20233;-74
2021/09/19 06:09:42;;;;;;;4.03;3.60;;;14.20;99.90;;;;;;5110027;28;20240;-73
2021/09/19 06:12:09;;;;;;;5.27;3.33;;;14.20;99.90;;;;;;5109882;28;20202;-72
2021/09/19 06:14:36;;;;;;;8.27;3.60;;;14.10;99.90;;;;;;5109775;28;20548;-72
2021/09/19 06:17:04;;;;;;;3.80;3.50;;;14.20;99.90;;;;;;5109636;28;20571;-73
2021/09/19 06:19:30;;;;;;;4.00;3.63;;;14.20;99.90;;;;;;5109852;27;20276;-72
2021/09/19 06:21:59;;;;;;;3.83;3.53;;;14.10;99.90;;;;;;5109619;28;20202;-72
2021/09/19 06:24:25;;;;;;;5.50;3.73;;;14.20;99.90;;;;;;5109387;28;20695;-73
2021/09/19 06:26:52;;;;;;;4.40;3.50;;;14.20;99.90;;;;;;5109656;28;20252;-74
2021/09/19 06:29:19;;;;;;;3.90;3.50;;;14.20;99.90;;;;;;5109643;28;20274;-73
2021/09/19 06:31:45;;;;;;;4.23;3.20;;;14.20;99.90;;;;;;5109310;28;20695;-74
2021/09/19 06:34:13;;;;;;;3.77;3.53;;;14.20;99.90;;;;;;5109320;28;20290;-73
2021/09/19 06:36:40;;;;;;;3.90;3.60;;;14.20;99.90;;;;;;5109260;28;20205;-73
2021/09/19 06:39:07;;;;;;;3.50;3.30;;;14.30;99.90;;;;;;5109175;28;20279;-73
2021/09/19 06:41:33;;;;;;;5.33;3.47;;;14.30;99.90;;;;;;5109236;27;20241;-73
2021/09/19 06:44:00;;;;;;;3.83;3.53;;;14.30;99.90;;;;;;5109219;28;20237;-72
2021/09/19 06:46:30;;;;;;;3.87;3.37;;;14.30;99.90;;;;;;5109061;28;20226;-72
2021/09/19 06:48:56;;;;;;;4.17;3.07;;;14.30;99.90;;;;;;5109005;28;20305;-74
2021/09/19 06:51:25;;;;;;;4.30;3.90;;;14.30;99.90;;;;;;5109064;28;20341;-75
2021/09/19 06:53:54;;;;;;;4.47;3.67;;;14.30;99.90;;;;;;5108824;28;20214;-75
2021/09/19 06:56:21;;;;;;;3.83;3.30;;;14.30;99.90;;;;;;5088570;28;20279;-75
2021/09/19 06:58:48;;;;;;;4.13;3.73;;;14.30;99.90;;;;;;5087341;28;20288;-75
2021/09/19 07:01:15;;;;;;;4.10;3.70;;;14.30;99.90;;;;;;5086755;28;20295;-74
2021/09/19 07:03:42;;;;;;;4.13;3.70;;;14.30;99.90;;;;;;5086108;28;20207;-74
2021/09/19 07:06:09;;;;;;;5.03;3.70;;;14.30;99.90;;;;;;5085847;28;20207;-74
2021/09/19 07:08:36;;;;;;;5.13;3.77;;;14.30;99.90;;;;;;5085567;28;20206;-74
2021/09/19 07:11:04;;;;;;;4.77;4.30;;;14.20;99.90;;;;;;5086068;28;20264;-75
2021/09/19 07:13:30;;;;;;;3.77;3.47;;;14.10;99.90;;;;;;5107224;27;20283;-75
2021/09/19 07:15:57;;;;;;;4.43;3.77;;;14.20;99.90;;;;;;5106921;28;20651;-75
2021/09/19 07:18:24;;;;;;;4.67;4.27;;;14.20;99.90;;;;;;5126690;27;20236;-74
2021/09/19 07:20:53;;;;;;;4.20;3.80;;;14.30;99.90;;;;;;5114208;27;20700;-75
2021/09/19 07:23:19;;;;;;;4.43;3.70;;;14.30;99.90;;;;;;5108757;28;20202;-75
2021/09/19 07:25:48;;;;;;;4.30;3.90;;;14.30;99.90;;;;;;5108908;28;20206;-74
2021/09/19 07:28:15;;;;;;;3.77;3.10;;;14.40;99.90;;;;;;5108837;28;20252;-74
2021/09/19 07:30:42;;;;;;;4.53;4.13;;;14.40;99.90;;;;;;5111989;28;20231;-75
2021/09/19 07:33:09;;;;;;;4.33;3.77;;;14.40;99.90;;;;;;5128518;27;20282;-74
2021/09/19 07:35:36;;;;;;;4.50;4.10;;;14.30;99.90;;;;;;5108150;28;20208;-74
2021/09/19 07:38:04;;;;;;;4.03;3.70;;;14.20;99.90;;;;;;5108730;28;20230;-74
2021/09/19 07:40:31;;;;;;;4.07;3.77;;;14.20;99.90;;;;;;5108405;28;20234;-74
2021/09/19 07:43:00;;;;;;;3.77;3.47;;;14.20;99.90;;;;;;5123591;28;20703;-73
2021/09/19 07:45:27;;;;;;;4.03;3.67;;;14.30;99.90;;;;;;5116787;27;20283;-72
2021/09/19 07:47:55;;;;;;;3.60;3.40;;;14.40;99.90;;;;;;5108363;28;20228;-72
2021/09/19 07:50:22;;;;;;;5.10;3.63;;;14.50;99.90;;;;;;5108034;28;20260;-72
2021/09/19 07:52:49;;;;;;;4.90;3.57;;;14.50;99.90;;;;;;5108279;28;20255;-72
2021/09/19 07:55:16;;;;;;;6.97;3.73;;;14.50;99.90;;;;;;5109982;28;20198;-72
2021/09/19 07:57:43;;;;;;;3.90;3.40;;;14.60;99.90;;;;;;5128129;28;20752;-72
2021/09/19 08:00:12;;;;;;;3.30;3.10;;;14.70;99.90;;;;;;5128809;28;20237;-72
2021/09/19 08:02:38;;;;;;;4.37;3.90;;;14.70;99.90;;;;;;5125477;28;20265;-72
2021/09/19 08:05:06;;;;;;;3.57;3.27;;;14.80;99.90;;;;;;5107140;28;20241;-73
2021/09/19 08:07:33;;;;;;;4.40;3.47;;;14.80;99.90;;;;;;5107631;28;20245;-73
2021/09/19 08:09:59;;;;;;;3.90;3.60;;;14.90;99.90;;;;;;5116372;27;20202;-73
2021/09/19 08:12:26;;;;;;;3.47;3.17;;;15.00;99.90;;;;;;5122692;27;20206;-73
2021/09/19 08:14:53;;;;;;;3.17;2.97;;;14.90;99.90;;;;;;5111913;28;20237;-72
2021/09/19 08:17:21;;;;;;;3.37;3.17;;;14.80;99.90;;;;;;5111722;28;20234;-72
2021/09/19 08:19:47;;;;;;;5.00;3.40;;;14.90;99.90;;;;;;5111575;27;20261;-72
2021/09/19 08:22:14;;;;;;;3.80;3.50;;;15.00;99.90;;;;;;5111566;28;20202;-72
2021/09/19 08:24:41;;;;;;;5.73;3.83;;;15.00;99.90;;;;;;5111752;28;20206;-73
2021/09/19 08:27:07;;;;;;;3.53;3.20;;;15.10;99.90;;;;;;5111745;28;20251;-73
2021/09/19 08:29:34;;;;;;;3.73;3.47;;;15.20;99.90;;;;;;5111277;28;20676;-73
2021/09/19 08:32:02;;;;;;;3.47;3.17;;;15.30;99.90;;;;;;5111430;28;20608;-72
2021/09/19 08:34:30;;;;;;;3.73;3.43;;;15.20;99.90;;;;;;5110999;28;20225;-73
2021/09/19 08:36:57;;;;;;;4.23;3.70;;;15.40;99.90;;;;;;5111390;27;20545;-72
2021/09/19 08:39:24;;;;;;;3.90;3.50;;;15.40;99.90;;;;;;5106534;27;20222;-73
2021/09/19 08:41:51;;;;;;;4.00;3.70;;;15.50;99.90;;;;;;5099009;28;20700;-73
2021/09/19 08:44:18;;;;;;;4.43;3.40;;;15.60;99.90;;;;;;5104835;28;20230;-72
2021/09/19 08:46:46;;;;;;;5.33;3.33;;;15.70;99.90;;;;;;5111256;28;20206;-73
2021/09/19 08:49:13;;;;;;;5.70;3.20;;;15.70;99.90;;;;;;5111139;28;20202;-72
2021/09/19 08:51:41;;;;;;;3.90;3.20;;;15.80;99.90;;;;;;5110800;28;20605;-73
2021/09/19 08:54:08;;;;;;;3.17;2.90;;;15.80;99.90;;;;;;5111342;27;20267;-73
2021/09/19 08:56:35;;;;;;;3.77;3.03;;;15.80;99.90;;;;;;5110747;28;20748;-73
2021/09/19 08:59:02;;;;;;;3.27;3.07;;;15.90;99.90;;;;;;5108101;27;20796;-73
2021/09/19 09:01:29;;;;;;;3.77;3.30;;;15.90;99.90;;;;;;5100735;28;20263;-73
2021/09/19 09:04:04;;;;;;;3.70;3.40;;;15.90;99.90;;;;;;5111111;28;20247;-73
2021/09/19 09:06:36;;;;;;;3.67;3.37;;;15.90;99.90;;;;;;5110196;28;20198;-73
2021/09/19 09:09:13;;;;;;;4.13;3.37;;;16.00;99.90;;;;;;5107375;27;20202;-73
2021/09/19 09:11:40;;;;;;;4.43;3.53;;;16.00;99.90;;;;;;5110643;27;20238;-73
2021/09/19 09:14:07;;;;;;;5.17;3.03;;;16.00;99.90;;;;;;5110611;28;20672;-73
2021/09/19 09:16:33;;;;;;;3.20;3.00;;;16.00;99.90;;;;;;5110544;28;20265;-73
2021/09/19 09:19:00;;;;;;;4.87;4.17;;;16.00;99.90;;;;;;5110860;27;20245;-73
2021/09/19 09:21:29;;;;;;;3.83;3.50;;;16.00;99.90;;;;;;5107419;27;20536;-73
2021/09/19 09:23:57;;;;;;;3.90;3.50;;;16.00;99.90;;;;;;5107185;28;20199;-73
2021/09/19 09:26:27;;;;;;;2.93;2.70;;;16.00;99.90;;;;;;5104593;28;20198;-73
2021/09/19 09:28:57;;;;;;;3.40;3.20;;;15.90;99.90;;;;;;5107650;27;20198;-72
2021/09/19 09:31:29;;;;;;;3.43;3.20;;;16.00;99.90;;;;;;5107222;28;20210;-74
2021/09/19 09:34:02;;;;;;;5.40;3.13;;;16.00;99.90;;;;;;5110661;27;20267;-73
2021/09/19 09:36:37;;;;;;;3.20;2.87;;;16.10;99.90;;;;;;5110327;27;20225;-73
2021/09/19 09:39:29;;;;;;;3.50;3.20;;;16.20;99.90;;;;;;5110421;28;20264;-73
2021/09/19 09:41:59;;;;;;;3.17;2.90;;;16.40;99.90;;;;;;5107663;27;20271;-73
2021/09/19 09:44:38;;;;;;;4.60;3.00;;;16.60;99.90;;;;;;5100571;28;20259;-74
2021/09/19 09:47:08;;;;;;;3.47;3.13;;;16.60;99.90;;;;;;5102294;27;20201;-73
2021/09/19 09:49:37;;;;;;;3.10;2.90;;;16.70;99.90;;;;;;5106364;27;20226;-73
2021/09/19 09:52:06;;;;;;;3.60;3.27;;;16.70;99.90;;;;;;5106857;28;20260;-73
2021/09/19 09:54:40;;;;;;;3.77;2.93;;;16.70;99.90;;;;;;5109660;28;20294;-73
2021/09/19 09:57:09;;;;;;;3.13;2.93;;;16.80;99.90;;;;;;5109927;28;20241;-74
2021/09/19 09:59:36;;;;;;;3.57;2.93;;;16.90;99.90;;;;;;5109625;28;20307;-73
2021/09/19 10:02:03;;;;;;;3.20;2.60;;;16.90;99.90;;;;;;5110023;28;20201;-73
2021/09/19 10:04:32;;;;;;;2.63;2.43;;;17.00;99.90;;;;;;5109860;27;20210;-74
2021/09/19 10:06:59;;;;;;;2.80;2.63;;;17.00;99.90;;;;;;5109900;28;20331;-73
2021/09/19 10:09:26;;;;;;;2.77;2.57;;;16.90;99.90;;;;;;5109778;28;20206;-74
2021/09/19 10:11:54;;;;;;;3.20;2.80;;;16.90;99.90;;;;;;5109437;28;20238;-74
2021/09/19 10:14:23;;;;;;;5.00;2.80;;;16.90;99.90;;;;;;5108793;27;20195;-74
2021/09/19 10:16:50;;;;;;;3.00;2.70;;;16.90;99.90;;;;;;5108809;27;20316;-73
2021/09/19 10:19:20;;;;;;;3.23;2.50;;;17.10;99.90;;;;;;5108324;28;20280;-76
2021/09/19 10:21:48;;;;;;;2.90;2.60;;;17.20;99.90;;;;;;5096440;28;20250;-74
2021/09/19 10:24:18;;;;;;;3.60;3.30;;;17.30;99.90;;;;;;5103892;28;20271;-74
2021/09/19 10:26:54;;;;;;;2.93;2.70;;;17.40;99.90;;;;;;5102003;28;20248;-75
2021/09/19 10:29:23;;;;;;;3.57;2.53;;;17.40;99.90;;;;;;5086583;28;20256;-75
2021/09/19 10:31:50;;;;;;;3.37;2.80;;;17.40;99.90;;;;;;5106930;28;20684;-74
2021/09/19 10:34:27;;;;;;;3.20;2.70;;;17.40;99.90;;;;;;5107352;28;20855;-74
2021/09/19 10:36:55;;;;;;;3.10;2.80;;;17.40;99.90;;;;;;5109011;28;20611;-75
2021/09/19 10:39:28;;;;;;;3.00;2.80;;;17.20;99.90;;;;;;5109067;28;20252;-74
2021/09/19 10:42:19;;;;;;;2.63;2.53;;;17.20;99.90;;;;;;5105965;28;20287;-74
2021/09/19 10:45:15;;;;;;;3.40;2.77;;;17.30;99.90;;;;;;5088402;28;21020;-74
2021/09/19 10:47:44;;;;;;;2.70;2.50;;;17.30;99.90;;;;;;5087383;28;20282;-73
2021/09/19 10:50:24;;;;;;;2.73;2.33;;;17.40;99.90;;;;;;5086359;28;20210;-74
2021/09/19 10:52:53;;;;;;;2.77;2.50;;;17.40;99.90;;;;;;5086688;28;20195;-74
2021/09/19 10:55:26;;;;;;;3.33;2.37;;;17.40;99.90;;;;;;5086285;28;20214;-73
2021/09/19 10:58:04;;;;;;;2.97;2.77;;;17.50;99.90;;;;;;5085871;28;20325;-72
2021/09/19 11:00:34;;;;;;;2.90;2.70;;;17.60;99.90;;;;;;5086204;28;20583;-71
2021/09/19 11:03:06;;;;;;;3.43;2.50;;;17.60;99.90;;;;;;5087889;28;20206;-72
2021/09/19 11:05:36;;;;;;;4.23;2.70;;;17.60;99.90;;;;;;5086541;28;20562;-74
2021/09/19 11:08:40;;;;;;;3.00;2.77;;;17.80;99.90;;;;;;5086559;28;20242;-73
2021/09/19 11:11:12;;;;;;;2.40;2.20;;;17.90;99.90;;;;;;5086412;28;20602;-74
2021/09/19 11:13:42;;;;;;;2.40;2.20;;;18.10;99.90;;;;;;5086737;28;20199;-74
2021/09/19 11:16:25;;;;;;;3.13;2.80;;;18.10;99.90;;;;;;5086295;28;20227;-74
2021/09/19 11:18:54;;;;;;;3.30;3.10;;;18.20;99.90;;;;;;5086174;28;20244;-75
2021/09/19 11:21:31;;;;;;;3.57;3.13;;;18.10;99.90;;;;;;5085929;28;20548;-74
2021/09/19 11:24:01;;;;;;;3.83;2.67;;;18.00;99.90;;;;;;5085662;28;20199;-75
2021/09/19 11:26:29;;;;;;;2.90;2.70;;;17.90;99.90;;;;;;5085972;28;20917;-74
2021/09/19 11:28:58;;;;;;;4.80;2.97;;;17.80;99.90;;;;;;5086411;28;20211;-74
2021/09/19 11:31:27;;;;;;;3.17;2.50;;;17.70;99.90;;;;;;5095690;28;20731;-75
2021/09/19 11:33:54;;;;;;;3.03;2.83;;;17.60;99.90;;;;;;5085933;28;20279;-74
2021/09/19 11:36:22;;;;;;;3.60;2.23;;;17.60;99.90;;;;;;5094918;28;20212;-74
2021/09/19 11:38:51;;;;;;;3.63;2.43;;;17.40;99.90;;;;;;5105928;28;20225;-72
2021/09/19 11:41:19;;;;;;;2.80;2.60;;;17.50;99.90;;;;;;5105980;28;20628;-72
2021/09/19 11:43:47;;;;;;;4.97;2.50;;;17.50;99.90;;;;;;5106662;28;20640;-72
2021/09/19 11:46:15;;;;;;;3.87;2.57;;;17.50;99.90;;;;;;5110516;28;20206;-73
2021/09/19 11:48:46;;;;;;;2.40;2.30;;;17.40;99.90;;;;;;5110675;28;20214;-73
2021/09/19 11:51:15;;;;;;;2.40;2.20;;;17.40;99.90;;;;;;5110525;28;20213;-73
2021/09/19 11:53:43;;;;;;;2.70;2.47;;;17.30;99.90;;;;;;5100265;28;20198;-73
2021/09/19 11:56:10;;;;;;;2.60;2.40;;;17.20;99.90;;;;;;5099656;28;20195;-73
2021/09/19 11:58:37;;;;;;;4.47;2.60;;;17.20;99.90;;;;;;5097476;28;20226;-73
2021/09/19 12:01:05;;;;;;;4.17;2.63;;;17.10;99.90;;;;;;5099330;28;20667;-73
2021/09/19 12:03:32;;;;;;;4.33;2.67;;;17.00;99.90;;;;;;5096936;28;20541;-73
2021/09/19 12:06:01;;;;;;;2.60;2.40;;;17.00;99.90;;;;;;5100475;28;20223;-73
2021/09/19 12:08:29;;;;;;;2.63;2.33;;;17.00;99.90;;;;;;5103229;28;20743;-73
2021/09/19 12:10:57;;;;;;;2.57;2.40;;;16.90;99.90;;;;;;5103151;28;20217;-73
2021/09/19 12:13:26;;;;;;;2.90;2.30;;;16.90;99.90;;;;;;5109469;28;20756;-73
2021/09/19 12:16:01;;;;;;;2.63;2.30;;;16.80;99.90;;;;;;5109267;28;20803;-73
2021/09/19 12:18:29;;;;;;;2.87;2.67;;;16.80;99.90;;;;;;5109879;28;20206;-73
2021/09/19 12:20:58;;;;;;;2.80;2.63;;;16.70;99.90;;;;;;5105947;28;20696;-76
2021/09/19 12:23:26;;;;;;;2.77;2.63;;;16.70;99.90;;;;;;5098210;28;20668;-76
2021/09/19 12:25:52;;;;;;;2.70;2.50;;;16.70;99.90;;;;;;5098405;28;20202;-76
2021/09/19 12:28:30;;;;;;;2.67;2.47;;;16.70;99.90;;;;;;5100219;28;20198;-75
2021/09/19 12:30:57;;;;;;;3.83;2.90;;;16.60;99.90;;;;;;5101507;28;20260;-75
2021/09/19 12:33:23;;;;;;;2.80;2.60;;;16.60;99.90;;;;;;5104143;28;20226;-75
2021/09/19 12:35:50;;;;;;;2.93;2.47;;;16.60;99.90;;;;;;5106268;28;20723;-75
2021/09/19 12:38:17;;;;;;;2.77;2.50;;;16.50;99.90;;;;;;5109564;28;20261;-75
2021/09/19 12:40:46;;;;;;;2.87;2.60;;;16.60;99.90;;;;;;5107213;27;20330;-75
2021/09/19 12:43:14;;;;;;;2.80;2.50;;;16.60;99.90;;;;;;5108828;28;20244;-75
2021/09/19 12:45:48;;;;;;;3.57;2.90;;;16.60;99.90;;;;;;5108606;28;20206;-74
2021/09/19 12:48:15;;;;;;;2.60;2.40;;;16.60;99.90;;;;;;5108804;27;20202;-75
2021/09/19 12:50:42;;;;;;;2.80;2.60;;;16.60;99.90;;;;;;5108412;28;20210;-75
2021/09/19 12:53:09;;;;;;;3.17;2.70;;;16.60;99.90;;;;;;5100237;27;20303;-75